Wednesday, October 18, 2017, 5:56 PM EDT
Back to Local

KMRB, Martinsburg Eastern Wv Reg

Location: Martinsburg, WV, United States Lat: 39.4
Local Time: 5:56 PM EDT (21:56 GMT) Lon: -77.983
Time Zone: US/Eastern Elev: 557 ft

Show me the last for .
Show Decoded

2017-10-18 16:53 METAR KMRB 182053Z 18005KT 10SM CLR 20/05 A3028 RMK AO2 SLP253 T02000050 56019 =
2017-10-18 15:53 METAR KMRB 181953Z 16005KT 10SM CLR 21/05 A3029 RMK AO2 SLP259 T02060050 =
2017-10-18 14:53 METAR KMRB 181853Z 19006KT 10SM CLR 21/06 A3031 RMK AO2 SLP265 T02060056 =
2017-10-18 13:53 METAR KMRB 181753Z VRB05KT 10SM CLR 19/05 A3033 RMK AO2 SLP273 T01940050 10194
                 20022 58020 =
2017-10-18 12:53 METAR KMRB 181653Z 16005KT 10SM CLR 18/06 A3037 RMK AO2 SLP284 T01830061 =
2017-10-18 11:53 METAR KMRB 181553Z 16005KT 10SM CLR 16/06 A3039 RMK AO2 SLP291 T01610061 =
2017-10-18 10:53 METAR KMRB 181453Z 00000KT 10SM CLR 13/06 A3039 RMK AO2 SLP293 T01280056 50006 =
2017-10-18 09:53 METAR KMRB 181353Z 00000KT 10SM CLR 09/05 A3040 RMK AO2 SLP295 T00940050 =
2017-10-18 08:53 METAR KMRB 181253Z 00000KT 10SM CLR 06/04 A3039 RMK AO2 SLP295 T00610044 =
2017-10-18 07:53 METAR KMRB 181153Z 00000KT 10SM CLR 02/02 A3037 RMK AO2 SLP288 T00220017 10039
                 20017 53015 =
2017-10-18 06:53 METAR KMRB 181053Z AUTO 00000KT 10SM CLR 02/01 A3035 RMK AO2 SLP282 T00220011 =
2017-10-18 05:53 METAR KMRB 180953Z AUTO 00000KT 10SM CLR 02/01 A3034 RMK AO2 SLP277 T00220011 =
2017-10-18 04:53 METAR KMRB 180853Z AUTO 00000KT 10SM CLR 03/02 A3033 RMK AO2 SLP273 T00330022
                 53004 =
2017-10-18 03:53 METAR KMRB 180753Z AUTO 14003KT 10SM CLR 03/02 A3031 RMK AO2 SLP267 T00280017 =
2017-10-18 02:53 METAR KMRB 180653Z AUTO 00000KT 10SM CLR 03/02 A3031 RMK AO2 SLP266 T00330022 =
2017-10-18 01:53 METAR KMRB 180553Z AUTO 00000KT 10SM CLR 04/02 A3032 RMK AO2 SLP268 T00390022
                 10106 20039 53002 =
2017-10-18 00:53 METAR KMRB 180453Z AUTO 00000KT 10SM CLR 05/03 A3031 RMK AO2 SLP267 T00500028
                 401720017 =
2017-10-17 23:53 METAR KMRB 180353Z AUTO 21003KT 10SM CLR 06/03 A3031 RMK AO2 SLP266 T00560028 =
2017-10-17 22:53 METAR KMRB 180253Z AUTO 19003KT 10SM CLR 08/03 A3031 RMK AO2 SLP266 T00780033
                 51012 =
2017-10-17 21:53 METAR KMRB 180153Z 22003KT 10SM CLR 08/03 A3030 RMK AO2 SLP263 T00830033 =
2017-10-17 20:53 METAR KMRB 180053Z 19003KT 10SM CLR 08/03 A3028 RMK AO2 SLP258 T00780028 =
2017-10-17 19:53 METAR KMRB 172353Z 00000KT 10SM CLR 09/03 A3027 RMK AO2 SLP254 T00940033 10172
                 20094 53003 =
2017-10-17 18:53 METAR KMRB 172253Z 17006KT 10SM CLR 12/02 A3027 RMK AO2 SLP250 T01220022 =

Support USWX by starting your Amazon purchase here.